createdAt,value
2023-05-10T00:02:08.727Z,95940.64
2023-05-10T00:04:39.693Z,95938.63
2023-05-10T00:07:11.701Z,95941.58
2023-05-10T00:09:43.694Z,95936.41
2023-05-10T00:12:14.698Z,95937.59
2023-05-10T00:14:44.684Z,95938.10
2023-05-10T00:17:15.106Z,95933.30
2023-05-10T00:19:46.684Z,95935.23
2023-05-10T00:22:17.556Z,95937.52
2023-05-10T00:24:48.003Z,95934.95
2023-05-10T00:27:18.278Z,95937.06
2023-05-10T00:37:24.014Z,95929.29
2023-05-10T00:39:52.671Z,95928.36
2023-05-10T00:42:20.940Z,95925.14
2023-05-10T00:44:49.610Z,95925.55
2023-05-10T00:47:18.345Z,95929.97
2023-05-10T00:49:47.205Z,95929.56
2023-05-10T00:52:15.563Z,95923.71
2023-05-10T00:54:44.105Z,95921.28
2023-05-10T00:57:12.556Z,95919.05
2023-05-10T00:59:40.865Z,95920.48
2023-05-10T01:02:09.138Z,95916.27
2023-05-10T01:04:38.336Z,95914.24
2023-05-10T01:07:06.826Z,95914.91
2023-05-10T01:09:35.378Z,95916.45
2023-05-10T01:12:04.702Z,95920.95
2023-05-10T01:14:33.169Z,95917.95
2023-05-10T01:17:02.466Z,95914.50
2023-05-10T01:19:32.503Z,95911.71
2023-05-10T01:22:15.052Z,95903.91
2023-05-10T01:25:11.233Z,95905.82
2023-05-10T01:28:18.538Z,95907.55
2023-05-10T01:31:07.634Z,95905.61
2023-05-10T01:33:48.781Z,95901.99
2023-05-10T01:36:32.111Z,95903.80
2023-05-10T01:39:23.224Z,95903.95
2023-05-10T01:41:56.933Z,95907.72
2023-05-10T01:44:41.480Z,95910.20
2023-05-10T01:47:16.726Z,95917.80
2023-05-10T01:49:50.734Z,95914.74
2023-05-10T01:52:28.242Z,95908.27
2023-05-10T01:55:19.148Z,95906.33
2023-05-10T01:57:52.107Z,95899.44
2023-05-10T02:00:21.385Z,95896.57
2023-05-10T02:02:53.939Z,95899.44
2023-05-10T02:05:23.969Z,95890.20
2023-05-10T02:07:53.759Z,95893.83
2023-05-10T02:10:22.333Z,95893.41
2023-05-10T02:12:52.403Z,95893.19
2023-05-10T02:15:24.982Z,95890.30
2023-05-10T02:17:56.602Z,95886.67
2023-05-10T02:20:26.552Z,95887.05
2023-05-10T02:22:57.142Z,95892.79
2023-05-10T02:25:27.303Z,95894.48
2023-05-10T02:27:58.945Z,95892.94
2023-05-10T02:30:27.963Z,95894.67
2023-05-10T02:32:58.497Z,95891.73
2023-05-10T02:35:28.397Z,95895.15
2023-05-10T02:37:59.195Z,95894.48
2023-05-10T02:40:28.940Z,95896.85
2023-05-10T02:43:00.400Z,95896.23
2023-05-10T02:45:31.613Z,95892.16
2023-05-10T02:48:01.098Z,95891.87
2023-05-10T02:50:33.529Z,95897.58
2023-05-10T02:53:04.269Z,95896.90
2023-05-10T02:55:37.605Z,95895.64
2023-05-10T02:58:06.031Z,95904.08
2023-05-10T03:00:34.291Z,95904.95
2023-05-10T03:03:02.798Z,95907.15
2023-05-10T03:05:31.384Z,95905.40
2023-05-10T03:08:04.945Z,95903.85
2023-05-10T03:10:39.143Z,95903.17
2023-05-10T03:13:14.199Z,95901.39
2023-05-10T03:15:48.722Z,95899.64
2023-05-10T03:18:23.710Z,95900.59
2023-05-10T03:20:55.328Z,95899.17
2023-05-10T03:23:41.937Z,95896.91
2023-05-10T03:26:13.373Z,95894.80
2023-05-10T03:28:42.926Z,95892.39
2023-05-10T03:31:13.725Z,95889.84
2023-05-10T03:33:53.680Z,95891.08
2023-05-10T03:36:25.999Z,95887.40
2023-05-10T03:38:54.343Z,95889.28
2023-05-10T03:41:22.787Z,95891.66
2023-05-10T03:43:50.915Z,95888.63
2023-05-10T03:46:19.199Z,95889.38
2023-05-10T03:48:48.165Z,95887.29
2023-05-10T03:51:16.345Z,95888.66
2023-05-10T03:53:44.619Z,95886.38
2023-05-10T03:56:12.623Z,95888.38
2023-05-10T03:58:41.072Z,95887.14
2023-05-10T04:01:09.247Z,95889.90
2023-05-10T04:03:37.776Z,95885.70
2023-05-10T04:06:09.434Z,95885.56
2023-05-10T04:08:37.808Z,95884.08
2023-05-10T04:11:10.052Z,95881.88
2023-05-10T04:13:39.273Z,95884.27
2023-05-10T04:16:07.541Z,95881.73
2023-05-10T04:18:36.109Z,95884.47
2023-05-10T04:21:04.794Z,95880.86
2023-05-10T04:23:33.078Z,95883.10
2023-05-10T04:26:02.390Z,95886.12
2023-05-10T04:28:30.801Z,95887.09
2023-05-10T04:31:03.598Z,95887.05
2023-05-10T04:33:32.185Z,95894.70
2023-05-10T04:36:00.720Z,95891.57
2023-05-10T04:38:29.923Z,95892.61
2023-05-10T04:41:12.110Z,95891.33
2023-05-10T04:43:40.438Z,95888.86
2023-05-10T04:46:09.126Z,95893.16
2023-05-10T04:48:37.799Z,95890.84
2023-05-10T04:51:07.506Z,95887.69
2023-05-10T04:53:36.330Z,95886.00
2023-05-10T04:56:04.955Z,95885.87
2023-05-10T04:58:33.279Z,95885.70
2023-05-10T05:01:09.228Z,95884.48
2023-05-10T05:03:38.505Z,95886.73
2023-05-10T05:06:07.334Z,95888.42
2023-05-10T05:08:35.820Z,95885.20
2023-05-10T05:11:04.000Z,95880.94
2023-05-10T05:13:32.439Z,95878.19
2023-05-10T05:16:02.764Z,95879.98
2023-05-10T05:18:30.925Z,95881.20
2023-05-10T05:20:59.111Z,95878.47
2023-05-10T05:23:27.492Z,95869.01
2023-05-10T05:25:56.098Z,95872.47
2023-05-10T05:28:24.482Z,95875.66
2023-05-10T05:30:53.458Z,95875.16
2023-05-10T05:33:21.676Z,95874.95
2023-05-10T05:35:51.951Z,95871.15
2023-05-10T05:38:20.171Z,95870.98
2023-05-10T05:40:48.461Z,95871.52
2023-05-10T05:43:16.579Z,95870.52
2023-05-10T05:45:45.027Z,95873.30
2023-05-10T05:48:13.549Z,95873.33
2023-05-10T05:50:41.677Z,95877.78
2023-05-10T05:53:10.157Z,95876.63
2023-05-10T05:55:38.488Z,95871.19
2023-05-10T05:58:06.906Z,95872.80
2023-05-10T06:00:35.113Z,95872.73
2023-05-10T06:03:03.424Z,95873.27
2023-05-10T06:05:31.813Z,95874.76
2023-05-10T06:08:01.625Z,95870.02
2023-05-10T06:10:29.778Z,95870.80
2023-05-10T06:12:57.937Z,95867.03
2023-05-10T06:15:26.483Z,95868.67
2023-05-10T06:17:55.076Z,95868.38
2023-05-10T06:20:23.370Z,95859.36
2023-05-10T06:22:51.717Z,95861.66
2023-05-10T06:25:19.910Z,95856.83
2023-05-10T06:27:51.097Z,95852.31
2023-05-10T06:30:24.227Z,95851.94
2023-05-10T06:32:53.032Z,95849.65
2023-05-10T06:35:21.919Z,95851.49
2023-05-10T06:37:50.645Z,95846.33
2023-05-10T06:40:20.375Z,95843.97
2023-05-10T06:42:49.313Z,95848.69
2023-05-10T06:45:17.823Z,95849.15
2023-05-10T06:47:47.078Z,95847.23
2023-05-10T06:50:15.458Z,95843.99
2023-05-10T06:52:44.225Z,95842.06
2023-05-10T06:55:12.633Z,95849.34
2023-05-10T06:57:41.026Z,95848.98
2023-05-10T07:00:10.928Z,95844.52
2023-05-10T07:02:39.483Z,95838.85
2023-05-10T07:05:08.406Z,95837.01
2023-05-10T07:07:36.991Z,95837.38
2023-05-10T07:10:05.948Z,95837.80
2023-05-10T07:12:34.652Z,95835.86
2023-05-10T07:15:02.921Z,95833.24
2023-05-10T07:17:31.174Z,95834.20
2023-05-10T07:19:59.876Z,95830.73
2023-05-10T07:22:28.126Z,95830.70
2023-05-10T07:24:56.378Z,95834.35
2023-05-10T07:27:24.716Z,95832.06
2023-05-10T07:29:53.154Z,95832.99
2023-05-10T07:32:22.796Z,95833.61
2023-05-10T07:34:51.438Z,95832.25
2023-05-10T07:37:19.870Z,95831.52
2023-05-10T07:39:48.192Z,95827.92
2023-05-10T07:42:16.478Z,95831.17
2023-05-10T07:44:46.583Z,95828.17
2023-05-10T07:47:14.689Z,95826.44
2023-05-10T07:49:43.246Z,95828.84
2023-05-10T07:52:11.284Z,95826.64
2023-05-10T07:54:39.624Z,95828.26
2023-05-10T07:57:08.001Z,95824.86
2023-05-10T07:59:36.597Z,95831.14
2023-05-10T08:02:04.898Z,95829.48
2023-05-10T08:04:33.349Z,95824.88
2023-05-10T08:07:01.649Z,95833.42
2023-05-10T08:09:30.602Z,95829.52
2023-05-10T08:12:00.499Z,95832.00
2023-05-10T08:14:30.986Z,95829.14
2023-05-10T08:16:59.036Z,95831.46
2023-05-10T08:19:27.397Z,95830.15
2023-05-10T08:21:56.832Z,95826.98
2023-05-10T08:24:25.181Z,95828.37
2023-05-10T08:26:53.569Z,95828.05
2023-05-10T08:29:21.779Z,95826.64
2023-05-10T08:31:49.974Z,95828.33
2023-05-10T08:34:18.518Z,95828.45
2023-05-10T08:36:47.190Z,95827.15
2023-05-10T08:39:26.774Z,95824.21
2023-05-10T08:42:02.566Z,95818.69
2023-05-10T08:44:35.310Z,95819.06
2023-05-10T08:47:08.644Z,95820.91
2023-05-10T08:49:38.798Z,95818.96
2023-05-10T08:52:08.715Z,95812.94
2023-05-10T08:54:37.878Z,95811.09
2023-05-10T08:57:06.831Z,95810.86
2023-05-10T08:59:35.275Z,95810.23
2023-05-10T09:02:05.774Z,95808.91
2023-05-10T09:04:34.142Z,95809.64
2023-05-10T09:07:02.887Z,95805.24
2023-05-10T09:09:32.144Z,95801.33
2023-05-10T09:12:00.910Z,95803.78
2023-05-10T09:14:30.366Z,95798.65
2023-05-10T09:16:58.592Z,95797.05
2023-05-10T09:19:26.912Z,95794.20
2023-05-10T09:21:55.225Z,95793.46
2023-05-10T09:24:28.036Z,95790.70
2023-05-10T09:26:58.747Z,95788.92
2023-05-10T09:29:27.220Z,95787.39
2023-05-10T09:31:56.375Z,95782.34
2023-05-10T09:34:34.478Z,95783.51
2023-05-10T09:37:05.590Z,95781.64
2023-05-10T09:39:40.566Z,95780.11
2023-05-10T09:42:11.757Z,95777.21
2023-05-10T09:44:41.989Z,95775.30
2023-05-10T09:47:10.440Z,95772.77
2023-05-10T09:49:39.112Z,95769.33
2023-05-10T09:52:08.648Z,95768.79
2023-05-10T09:54:37.301Z,95769.08
2023-05-10T09:57:22.143Z,95766.13
2023-05-10T09:59:51.768Z,95758.98
2023-05-10T10:02:21.279Z,95762.80
2023-05-10T10:04:51.862Z,95759.79
2023-05-10T10:07:25.093Z,95760.60
2023-05-10T10:09:54.083Z,95755.88
2023-05-10T10:12:22.311Z,95756.84
2023-05-10T10:14:52.091Z,95756.49
2023-05-10T10:17:21.184Z,95751.34
2023-05-10T10:19:50.267Z,95749.78
2023-05-10T10:22:18.542Z,95748.34
2023-05-10T10:24:46.799Z,95750.31
2023-05-10T10:27:17.860Z,95750.88
2023-05-10T10:30:22.692Z,95749.05
2023-05-10T10:33:20.153Z,95742.75
2023-05-10T10:35:56.968Z,95741.96
2023-05-10T10:38:25.714Z,95743.15
2023-05-10T10:41:09.241Z,95742.27
2023-05-10T10:43:37.537Z,95737.20
2023-05-10T10:46:12.772Z,95733.02
2023-05-10T10:48:43.003Z,95732.81
2023-05-10T10:51:13.032Z,95732.23
2023-05-10T10:53:42.288Z,95733.44
2023-05-10T10:56:16.415Z,95725.28
2023-05-10T10:58:54.807Z,95724.61
2023-05-10T11:01:23.289Z,95721.85
2023-05-10T11:04:04.090Z,95722.54
2023-05-10T11:06:34.773Z,95716.68
2023-05-10T11:09:11.289Z,95715.31
2023-05-10T11:11:56.281Z,95717.95
2023-05-10T11:14:25.259Z,95714.66
2023-05-10T11:16:53.674Z,95712.27
2023-05-10T11:19:21.932Z,95714.30
2023-05-10T11:22:17.953Z,95710.02
2023-05-10T11:24:59.594Z,95711.82
2023-05-10T11:27:27.957Z,95706.30
2023-05-10T11:29:56.092Z,95702.85
2023-05-10T11:32:24.612Z,95702.70
2023-05-10T11:34:52.822Z,95706.06
2023-05-10T11:37:21.046Z,95706.56
2023-05-10T11:39:49.528Z,95698.52
2023-05-10T11:42:18.337Z,95700.58
2023-05-10T11:44:48.224Z,95697.20
2023-05-10T11:47:16.543Z,95693.46
2023-05-10T11:49:45.966Z,95696.11
2023-05-10T11:52:14.137Z,95698.98
2023-05-10T11:54:55.839Z,95697.79
2023-05-10T11:57:29.298Z,95690.80
2023-05-10T11:59:58.743Z,95695.84
2023-05-10T12:02:27.035Z,95693.63
2023-05-10T12:04:56.868Z,95690.59
2023-05-10T12:07:26.968Z,95694.24
2023-05-10T12:10:19.312Z,95696.83
2023-05-10T12:12:49.357Z,95693.48
2023-05-10T12:15:25.851Z,95690.56
2023-05-10T12:17:54.305Z,95685.74
2023-05-10T12:20:24.923Z,95692.93
2023-05-10T12:23:00.364Z,95684.89
2023-05-10T12:25:34.454Z,95685.38
2023-05-10T12:28:08.152Z,95684.13
2023-05-10T12:30:37.176Z,95688.16
2023-05-10T12:33:10.608Z,95686.35
2023-05-10T12:35:51.288Z,95681.53
2023-05-10T12:38:40.767Z,95680.42
2023-05-10T12:41:11.569Z,95679.10
2023-05-10T12:43:41.247Z,95679.21
2023-05-10T12:46:14.433Z,95677.64
2023-05-10T12:48:44.466Z,95676.77
2023-05-10T12:51:14.281Z,95675.48
2023-05-10T12:53:45.075Z,95668.46
2023-05-10T12:56:14.259Z,95668.14
2023-05-10T12:58:42.765Z,95663.30
2023-05-10T13:01:11.287Z,95657.95
2023-05-10T13:03:39.555Z,95658.40
2023-05-10T13:06:08.006Z,95655.38
2023-05-10T13:08:36.273Z,95655.52
2023-05-10T13:11:04.706Z,95650.19
2023-05-10T13:13:33.147Z,95647.39
2023-05-10T13:16:01.292Z,95648.55
2023-05-10T13:18:29.631Z,95652.75
2023-05-10T13:20:57.850Z,95649.42
2023-05-10T13:23:26.044Z,95647.27
2023-05-10T13:25:54.323Z,95647.25
2023-05-10T13:28:22.617Z,95643.64
2023-05-10T13:30:50.678Z,95635.30
2023-05-10T13:33:19.059Z,95637.02
2023-05-10T13:35:47.459Z,95632.52
2023-05-10T13:38:15.720Z,95633.80
2023-05-10T13:40:43.902Z,95634.67
2023-05-10T13:43:12.473Z,95632.83
2023-05-10T13:45:40.755Z,95628.83
2023-05-10T13:48:08.964Z,95625.13
2023-05-10T13:50:37.142Z,95630.59
2023-05-10T13:53:06.721Z,95629.46
2023-05-10T13:55:34.896Z,95625.01
2023-05-10T13:58:03.040Z,95627.38
2023-05-10T14:00:31.687Z,95626.54
2023-05-10T14:02:59.800Z,95622.66
2023-05-10T14:05:28.292Z,95621.24
2023-05-10T14:07:57.222Z,95621.94
2023-05-10T14:10:25.502Z,95616.16
2023-05-10T14:12:53.712Z,95614.77
2023-05-10T14:15:22.172Z,95607.93
2023-05-10T14:17:50.350Z,95607.17
2023-05-10T14:20:18.698Z,95608.23
2023-05-10T14:22:46.876Z,95605.60
2023-05-10T14:25:16.140Z,95607.03
2023-05-10T14:27:44.551Z,95605.97
2023-05-10T14:30:15.999Z,95597.77
2023-05-10T14:32:44.107Z,95595.85
2023-05-10T14:35:14.965Z,95593.64
2023-05-10T14:37:44.996Z,95594.34
2023-05-10T14:40:13.749Z,95599.67
2023-05-10T14:42:43.650Z,95597.48
2023-05-10T14:45:13.203Z,95599.90
2023-05-10T14:47:41.455Z,95594.04
2023-05-10T14:50:10.088Z,95596.24
2023-05-10T14:52:38.227Z,95594.46
2023-05-10T14:55:07.299Z,95589.91
2023-05-10T14:57:35.712Z,95592.80
2023-05-10T15:00:05.072Z,95594.52
2023-05-10T15:02:34.042Z,95594.44
2023-05-10T15:05:03.219Z,95588.02
2023-05-10T15:07:32.868Z,95589.23
2023-05-10T15:10:01.550Z,95587.61
2023-05-10T15:12:29.649Z,95583.98
2023-05-10T15:14:57.779Z,95587.14
2023-05-10T15:17:26.188Z,95587.98
2023-05-10T15:19:54.476Z,95585.19
2023-05-10T15:22:23.494Z,95588.80
2023-05-10T15:24:51.649Z,95586.44
2023-05-10T15:27:19.797Z,95586.92
2023-05-10T15:29:47.895Z,95587.56
2023-05-10T15:32:16.181Z,95582.05
2023-05-10T15:34:44.472Z,95585.63
2023-05-10T15:37:12.725Z,95577.11
2023-05-10T15:39:41.153Z,95575.70
2023-05-10T15:42:09.642Z,95576.63
2023-05-10T15:44:39.417Z,95575.61
2023-05-10T15:47:07.542Z,95575.83
2023-05-10T15:49:36.170Z,95574.63
2023-05-10T15:52:04.386Z,95573.99
2023-05-10T15:54:32.531Z,95578.92
2023-05-10T15:57:02.004Z,95580.58
2023-05-10T15:59:30.226Z,95579.13
2023-05-10T16:01:58.697Z,95572.25
2023-05-10T16:04:27.285Z,95575.64
2023-05-10T16:06:55.757Z,95572.95
2023-05-10T16:09:24.138Z,95577.09
2023-05-10T16:11:52.349Z,95576.67
2023-05-10T16:14:23.152Z,95576.34
2023-05-10T16:16:51.849Z,95573.23
2023-05-10T16:19:20.226Z,95572.44
2023-05-10T16:21:48.819Z,95572.35
2023-05-10T16:24:17.090Z,95574.85
2023-05-10T16:26:45.693Z,95572.73
2023-05-10T16:29:13.898Z,95571.11
2023-05-10T16:31:42.028Z,95573.66
2023-05-10T16:34:10.187Z,95571.95
2023-05-10T16:36:38.438Z,95575.38
2023-05-10T16:39:06.963Z,95577.10
2023-05-10T16:41:35.797Z,95578.61
2023-05-10T16:44:04.069Z,95585.85
2023-05-10T16:46:33.452Z,95586.98
2023-05-10T16:49:01.544Z,95587.73
2023-05-10T16:51:29.888Z,95593.42
2023-05-10T16:53:58.713Z,95589.30
2023-05-10T16:56:26.870Z,95592.66
2023-05-10T16:58:55.039Z,95596.96
2023-05-10T17:01:26.249Z,95596.58
2023-05-10T17:03:55.146Z,95598.66
2023-05-10T17:06:23.662Z,95599.52
2023-05-10T17:08:52.266Z,95600.73
2023-05-10T17:11:22.050Z,95600.85
2023-05-10T17:13:52.214Z,95601.65
2023-05-10T17:16:21.508Z,95608.44
2023-05-10T17:18:49.836Z,95608.38
2023-05-10T17:21:18.361Z,95609.40
2023-05-10T17:23:46.844Z,95613.93
2023-05-10T17:26:15.282Z,95613.70
2023-05-10T17:28:43.503Z,95610.42
2023-05-10T17:31:11.920Z,95617.14
2023-05-10T17:33:40.509Z,95611.55
2023-05-10T17:36:08.857Z,95612.98
2023-05-10T17:38:36.963Z,95617.71
2023-05-10T17:41:05.179Z,95620.64
2023-05-10T17:43:33.578Z,95622.93
2023-05-10T17:46:02.002Z,95621.85
2023-05-10T17:48:30.223Z,95624.06
2023-05-10T17:50:58.445Z,95625.55
2023-05-10T17:53:26.686Z,95628.61
2023-05-10T17:55:59.250Z,95629.73
2023-05-10T17:58:28.269Z,95628.95
2023-05-10T18:00:57.767Z,95632.96
2023-05-10T18:03:26.174Z,95633.93
2023-05-10T18:05:55.464Z,95638.89
2023-05-10T18:08:27.138Z,95646.14
2023-05-10T18:10:55.513Z,95650.60
2023-05-10T18:13:24.674Z,95653.02
2023-05-10T18:15:53.461Z,95655.77
2023-05-10T18:18:21.799Z,95661.91
2023-05-10T18:20:56.544Z,95672.78
2023-05-10T18:23:25.990Z,95672.03
2023-05-10T18:25:54.591Z,95678.06
2023-05-10T18:28:24.684Z,95678.15
2023-05-10T18:30:52.903Z,95682.36
2023-05-10T18:33:21.655Z,95682.67
2023-05-10T18:35:50.221Z,95689.98
2023-05-10T18:38:19.473Z,95689.59
2023-05-10T18:40:47.611Z,95691.67
2023-05-10T18:43:15.970Z,95696.45
2023-05-10T18:45:44.486Z,95695.13
2023-05-10T18:48:12.965Z,95697.50
2023-05-10T18:50:41.073Z,95698.66
2023-05-10T18:53:09.123Z,95702.24
2023-05-10T18:55:37.323Z,95707.41
2023-05-10T18:58:05.664Z,95708.45
2023-05-10T19:00:33.942Z,95710.55
2023-05-10T19:03:02.465Z,95713.27
2023-05-10T19:05:31.759Z,95715.17
2023-05-10T19:07:59.937Z,95717.37
2023-05-10T19:10:27.987Z,95717.46
2023-05-10T19:12:57.390Z,95723.05
2023-05-10T19:15:25.732Z,95724.70
2023-05-10T19:17:54.263Z,95724.89
2023-05-10T19:20:22.421Z,95729.70
2023-05-10T19:23:02.607Z,95731.12
2023-05-10T19:25:39.528Z,95734.25
2023-05-10T19:28:09.719Z,95730.48
2023-05-10T19:30:37.928Z,95733.35
2023-05-10T19:33:06.809Z,95739.27
2023-05-10T19:35:35.339Z,95739.05
2023-05-10T19:38:03.656Z,95741.44
2023-05-10T19:40:31.829Z,95739.18
2023-05-10T19:43:00.705Z,95738.13
2023-05-10T19:45:29.060Z,95740.56
2023-05-10T19:47:57.941Z,95741.39
2023-05-10T19:50:26.542Z,95740.73
2023-05-10T19:52:54.765Z,95740.80
2023-05-10T19:55:28.355Z,95742.48
2023-05-10T19:57:56.591Z,95741.80
2023-05-10T20:00:25.924Z,95745.29
2023-05-10T20:02:55.143Z,95741.48
2023-05-10T20:05:23.993Z,95743.66
2023-05-10T20:07:52.532Z,95746.89
2023-05-10T20:10:22.106Z,95749.08
2023-05-10T20:12:52.278Z,95747.89
2023-05-10T20:15:22.932Z,95747.00
2023-05-10T20:17:53.219Z,95746.09
2023-05-10T20:20:22.147Z,95749.20
2023-05-10T20:22:50.430Z,95753.45
2023-05-10T20:25:19.166Z,95749.00
2023-05-10T20:27:47.314Z,95753.95
2023-05-10T20:30:16.565Z,95753.01
2023-05-10T20:32:45.435Z,95753.85
2023-05-10T20:35:13.612Z,95760.35
2023-05-10T20:37:41.892Z,95762.48
2023-05-10T20:40:11.197Z,95763.59
2023-05-10T20:42:39.363Z,95769.45
2023-05-10T20:45:08.358Z,95766.48
2023-05-10T20:47:36.556Z,95769.14
2023-05-10T20:50:05.302Z,95770.30
2023-05-10T20:52:33.494Z,95770.23
2023-05-10T20:55:02.113Z,95767.04
2023-05-10T20:57:30.255Z,95769.84
2023-05-10T20:59:58.427Z,95767.88
2023-05-10T21:02:26.594Z,95770.90
2023-05-10T21:04:57.105Z,95768.61
2023-05-10T21:07:26.290Z,95772.04
2023-05-10T21:09:54.483Z,95768.20
2023-05-10T21:12:22.627Z,95772.33
2023-05-10T21:14:51.053Z,95773.86
2023-05-10T21:17:20.241Z,95769.05
2023-05-10T21:19:48.790Z,95767.08
2023-05-10T21:22:17.037Z,95768.33
2023-05-10T21:24:45.382Z,95764.84
2023-05-10T21:27:13.519Z,95765.87
2023-05-10T21:29:41.953Z,95761.17
2023-05-10T21:32:10.601Z,95762.63
2023-05-10T21:34:38.982Z,95763.58
2023-05-10T21:37:07.152Z,95762.59
2023-05-10T21:39:36.136Z,95764.11
2023-05-10T21:42:04.777Z,95763.86
2023-05-10T21:44:32.856Z,95767.51
2023-05-10T21:47:01.218Z,95765.80
2023-05-10T21:49:29.421Z,95768.98
2023-05-10T21:51:57.602Z,95767.67
2023-05-10T21:54:25.821Z,95763.52
2023-05-10T21:56:54.156Z,95765.36
2023-05-10T21:59:22.307Z,95764.23
2023-05-10T22:01:50.534Z,95768.63
2023-05-10T22:04:18.689Z,95773.22
2023-05-10T22:06:47.137Z,95772.07
2023-05-10T22:09:15.668Z,95772.31
2023-05-10T22:11:43.902Z,95776.98
2023-05-10T22:14:12.152Z,95770.81
2023-05-10T22:16:40.363Z,95768.52
2023-05-10T22:19:08.568Z,95773.54
2023-05-10T22:21:36.789Z,95772.30
2023-05-10T22:24:05.536Z,95774.64
2023-05-10T22:26:33.608Z,95773.21
2023-05-10T22:29:01.957Z,95771.25
2023-05-10T22:31:30.106Z,95770.64
2023-05-10T22:33:58.509Z,95776.08
2023-05-10T22:36:27.391Z,95778.65
2023-05-10T22:38:55.812Z,95778.23
2023-05-10T22:41:24.057Z,95780.27
2023-05-10T22:43:52.274Z,95779.44
2023-05-10T22:46:20.497Z,95777.33
2023-05-10T22:48:48.690Z,95776.54
2023-05-10T22:51:17.075Z,95775.98
2023-05-10T22:53:45.758Z,95779.85
2023-05-10T22:56:14.257Z,95781.15
2023-05-10T22:58:42.439Z,95780.81
2023-05-10T23:01:10.694Z,95779.48
2023-05-10T23:03:39.492Z,95781.55
2023-05-10T23:06:07.982Z,95784.16
2023-05-10T23:08:36.148Z,95781.00
2023-05-10T23:11:04.364Z,95779.77
2023-05-10T23:13:32.563Z,95781.40
2023-05-10T23:16:06.663Z,95782.17
2023-05-10T23:18:34.993Z,95780.36
2023-05-10T23:21:03.396Z,95781.92
2023-05-10T23:23:34.143Z,95775.59
2023-05-10T23:26:04.251Z,95774.05
2023-05-10T23:28:33.032Z,95774.52
2023-05-10T23:31:01.299Z,95772.04
2023-05-10T23:33:29.968Z,95777.45
2023-05-10T23:35:58.313Z,95779.38
2023-05-10T23:38:27.262Z,95778.37
2023-05-10T23:40:55.549Z,95777.16
2023-05-10T23:43:25.499Z,95780.83
2023-05-10T23:45:55.194Z,95784.44
2023-05-10T23:48:24.387Z,95785.92
2023-05-10T23:50:52.893Z,95784.77
2023-05-10T23:53:20.997Z,95784.20
2023-05-10T23:55:49.254Z,95781.73
2023-05-10T23:58:17.894Z,95782.54
